CheckWX is a tool to help pilots better visualize weather data.  It is not intended as a substitute for an official pre-flight weather briefing.

11:27:36 UTC

SLMG METAR
Magdalena Airport
Magdalena, Bolivia
Current

28 mins ago

SLMG 261100Z 34004KT 8000 VCSH FEW015 FEW023CB BKN070 25/24 Q1008
Observed
Jan-26 @ 11:00 UTC
Wind
  • 340° at 4 KTS
Visibility
8,000 meters
Flight Rules
MVFR
Cloud Levels
  • Few at 1,500' AGL
  • Few at 2,300' AGL
  • Broken at 7,000' AGL
Temperature
25°C / 77°F
Dewpoint
24°C / 75°F
Humidity
94%
Altimeter
29.76" Hg
Pressure
1007.92 hPa
Previous

1 hour ago

SLMG 261000Z 00000KT 8000 VCSH FEW010 FEW023CB BKN070 25/24 Q1008
Observed
Jan-26 @ 10:00 UTC
Visibility
8,000 meters
Flight Rules
MVFR
Cloud Levels
  • Few at 1,000' AGL
  • Few at 2,300' AGL
  • Broken at 7,000' AGL
Temperature
25°C / 77°F
Dewpoint
24°C / 75°F
Humidity
94%
Altimeter
29.76" Hg
Pressure
1007.92 hPa
Previous

13 hours ago

SLMG 252200Z 00000KT 8000 VCSH FEW017 FEW023CB BKN070 31/26 Q1007
Observed
Jan-25 @ 22:00 UTC
Visibility
8,000 meters
Flight Rules
MVFR
Cloud Levels
  • Few at 1,700' AGL
  • Few at 2,300' AGL
  • Broken at 7,000' AGL
Temperature
31°C / 88°F
Dewpoint
26°C / 79°F
Heat Index
39°C / 103°F
Humidity
75%
Altimeter
29.73" Hg
Pressure
1006.92 hPa